Wabash — V7GJ2 — position and weather

sailwx.info

Track history (hours):
 
Tides and Currents Weather Stations Pressure Air Temp Water Temp Dewpoint Dewpoint Depression Visibility Wind Speed Wind Dir Waves Ship Positions

Wabash

Last reported at 2018-Jun-12 01:09 UTC. Time now 2018-Jun-20 21:01 UTC.
Position N 43°43' W 069°45'.
Warning: this ship's position is 8 days out of date.

Type: Pleasure craft. MMSI: 538071004.

Date/timePositionNaut miles runAvg speedWind from/ knotsBaromVisibWave heightAir tempDewpointWater temp
2018-Jun-12 01:09N 43°43' W 069°45'0 0.1
2018-Jun-12 00:48N 43°43' W 069°45'6 7.8
2018-Jun-12 00:03N 43°41' W 069°53'0 9.2
2018-Jun-12 00:00N 43°40' W 069°53'5 9.0
2018-Jun-11 23:28N 43°39' W 069°60'3 5.4
2018-Jun-11 23:00N 43°39' W 070°03'3 6.8
2018-Jun-11 22:30N 43°39' W 070°08'3 6.6
2018-Jun-11 22:00N 43°39' W 070°12'2 3.6
2018-Jun-11 21:30N 43°39' W 070°15'0 0.0
2018-Jun-11 21:00N 43°39' W 070°15'0 0.0
2018-Jun-11 20:30N 43°39' W 070°15'0 0.0
2018-Jun-11 20:00N 43°39' W 070°15'0 0.0
2018-Jun-11 19:30N 43°39' W 070°15'0 0.0
2018-Jun-11 19:00N 43°39' W 070°15'0 0.0
2018-Jun-11 18:27N 43°39' W 070°15'0 0.0
2018-Jun-11 18:00N 43°39' W 070°15'0 0.0
2018-Jun-11 17:30N 43°39' W 070°15'0 0.0
2018-Jun-11 17:00N 43°39' W 070°15'0 0.0
2018-Jun-11 16:30N 43°39' W 070°15'0 0.0
2018-Jun-11 16:00N 43°39' W 070°15'0 0.0
2018-Jun-11 15:30N 43°39' W 070°15'0 0.0
2018-Jun-11 15:00N 43°39' W 070°15'0 0.0
2018-Jun-11 14:30N 43°39' W 070°15'0 0.0
2018-Jun-11 14:00N 43°39' W 070°15'0 0.0
2018-Jun-11 13:30N 43°39' W 070°15'0 0.0
2018-Jun-11 13:00N 43°39' W 070°15'0 0.2
2018-Jun-11 12:30N 43°39' W 070°15'1 2.1
2018-Jun-11 12:00N 43°39' W 070°13'4 7.6
2018-Jun-11 11:31N 43°36' W 070°11'5 9.7
2018-Jun-11 11:01N 43°31' W 070°11'39 9.7
2018-Jun-11 06:59N 42°52' W 070°12'6 9.6
2018-Jun-11 06:19N 42°46' W 070°13'3 9.5
2018-Jun-11 06:00N 42°43' W 070°13'6 9.3
2018-Jun-11 05:22N 42°37' W 070°10'4 9.1
2018-Jun-11 04:55N 42°33' W 070°08'4 8.9
2018-Jun-11 04:30N 42°30' W 070°06'4 8.6
2018-Jun-11 04:00N 42°27' W 070°03'4 8.5
2018-Jun-11 03:31N 42°23' W 069°60'4 8.6
2018-Jun-11 03:00N 42°20' W 069°56'4 8.5
2018-Jun-11 02:31N 42°16' W 069°53'5 8.9
2018-Jun-11 02:00N 42°13' W 069°48'20 9.2
2018-Jun-10 23:47N 41°57' W 069°31'3 9.5
2018-Jun-10 23:29N 41°55' W 069°30'5 9.5
2018-Jun-10 22:59N 41°50' W 069°28'5 9.6
2018-Jun-10 22:29N 41°45' W 069°26'6 9.7
2018-Jun-10 21:55N 41°40' W 069°25'1310.4
2018-Jun-10 20:40N 41°27' W 069°20'  
Track history (hours):
 
Tides and Currents Weather Stations Pressure Air Temp Water Temp Dewpoint Dewpoint Depression Visibility Wind Speed Wind Dir Waves Ship Positions

Wabash

Last reported at 2018-Jun-12 01:09 UTC. Time now 2018-Jun-20 21:01 UTC.
Position N 43°43' W 069°45'.
Warning: this ship's position is 8 days out of date.

Type: Pleasure craft. MMSI: 538071004.

Date/timePositionNaut miles runAvg speedWind from/ knotsBaromVisibWave heightAir tempDewpointWater temp
2018-Jun-12 01:09N 43°43' W 069°45'0 0.1
2018-Jun-12 00:48N 43°43' W 069°45'6 7.8
2018-Jun-12 00:03N 43°41' W 069°53'0 9.2
2018-Jun-12 00:00N 43°40' W 069°53'5 9.0
2018-Jun-11 23:28N 43°39' W 069°60'3 5.4
2018-Jun-11 23:00N 43°39' W 070°03'3 6.8
2018-Jun-11 22:30N 43°39' W 070°08'3 6.6
2018-Jun-11 22:00N 43°39' W 070°12'2 3.6
2018-Jun-11 21:30N 43°39' W 070°15'0 0.0
2018-Jun-11 21:00N 43°39' W 070°15'0 0.0
2018-Jun-11 20:30N 43°39' W 070°15'0 0.0
2018-Jun-11 20:00N 43°39' W 070°15'0 0.0
2018-Jun-11 19:30N 43°39' W 070°15'0 0.0
2018-Jun-11 19:00N 43°39' W 070°15'0 0.0
2018-Jun-11 18:27N 43°39' W 070°15'0 0.0
2018-Jun-11 18:00N 43°39' W 070°15'0 0.0
2018-Jun-11 17:30N 43°39' W 070°15'0 0.0
2018-Jun-11 17:00N 43°39' W 070°15'0 0.0
2018-Jun-11 16:30N 43°39' W 070°15'0 0.0
2018-Jun-11 16:00N 43°39' W 070°15'0 0.0
2018-Jun-11 15:30N 43°39' W 070°15'0 0.0
2018-Jun-11 15:00N 43°39' W 070°15'0 0.0
2018-Jun-11 14:30N 43°39' W 070°15'0 0.0
2018-Jun-11 14:00N 43°39' W 070°15'0 0.0
2018-Jun-11 13:30N 43°39' W 070°15'0 0.0
2018-Jun-11 13:00N 43°39' W 070°15'0 0.2
2018-Jun-11 12:30N 43°39' W 070°15'1 2.1
2018-Jun-11 12:00N 43°39' W 070°13'4 7.6
2018-Jun-11 11:31N 43°36' W 070°11'5 9.7
2018-Jun-11 11:01N 43°31' W 070°11'39 9.7
2018-Jun-11 06:59N 42°52' W 070°12'6 9.6
2018-Jun-11 06:19N 42°46' W 070°13'3 9.5
2018-Jun-11 06:00N 42°43' W 070°13'6 9.3
2018-Jun-11 05:22N 42°37' W 070°10'4 9.1
2018-Jun-11 04:55N 42°33' W 070°08'4 8.9
2018-Jun-11 04:30N 42°30' W 070°06'4 8.6
2018-Jun-11 04:00N 42°27' W 070°03'4 8.5
2018-Jun-11 03:31N 42°23' W 069°60'4 8.6
2018-Jun-11 03:00N 42°20' W 069°56'4 8.5
2018-Jun-11 02:31N 42°16' W 069°53'5 8.9
2018-Jun-11 02:00N 42°13' W 069°48'20 9.2
2018-Jun-10 23:47N 41°57' W 069°31'3 9.5
2018-Jun-10 23:29N 41°55' W 069°30'5 9.5
2018-Jun-10 22:59N 41°50' W 069°28'5 9.6
2018-Jun-10 22:29N 41°45' W 069°26'6 9.7
2018-Jun-10 21:55N 41°40' W 069°25'1310.4
2018-Jun-10 20:40N 41°27' W 069°20'  

Dump ship's entire track history